首页
METAR-TAF:

METAR-TAF

机场 :

帕罗斯岛, 希腊

纬度: 37-01-15N, 经度: 025-06-46E, 海拔: 38米

当前天气观测

该预报发布于34分钟前的16:20 UTC
风速5节,风向,在北转西北东北之间变化
温度 25°C
湿度 57%
气压 1017 hPa

METAR: LGPA 231620Z AUTO 36005KT 340V040 //// // ////// 25/16 Q1017 RE//

时间: 19:54 (16:54 UTC)


TAF: 丢失

超过4000个机场的气象观测和天气预报(METAR&TAF报告)。

可查询的气象台以黄色和红色小点在地图上表示。

将鼠标移到小点上方,可查看气象台名称。

然后点击查看天气观测和预报。

如需切换地图:点击带黑十字的绿色按钮放大地图;点击带横线的绿色按钮缩小地图;或者点击绿色箭头查看邻近地区的地图。


METAR-TAF: